sensor_id;sensor_type;location;lat;lon;timestamp;pressure;altitude;pressure_sealevel;temperature;humidity
67345;BME280;54230;52.402;6.276;2023-03-22T00:00:00;100920.0;;;11.7;80.8
67345;BME280;54230;52.402;6.276;2023-03-22T00:05:00;100920.0;;;11.6;80.8
67345;BME280;54230;52.402;6.276;2023-03-22T00:10:00;100900.0;;;11.6;80.7
67345;BME280;54230;52.402;6.276;2023-03-22T00:15:00;100910.0;;;11.5;80.2
67345;BME280;54230;52.402;6.276;2023-03-22T00:20:00;100910.0;;;11.5;79.7
67345;BME280;54230;52.402;6.276;2023-03-22T00:25:00;100900.0;;;11.5;79.5
67345;BME280;54230;52.402;6.276;2023-03-22T00:30:00;100900.0;;;11.6;79.0
67345;BME280;54230;52.402;6.276;2023-03-22T00:35:01;100890.0;;;11.7;78.3
67345;BME280;54230;52.402;6.276;2023-03-22T00:40:00;100900.0;;;11.8;77.7
67345;BME280;54230;52.402;6.276;2023-03-22T00:45:00;100900.0;;;11.7;77.4
67345;BME280;54230;52.402;6.276;2023-03-22T00:50:00;100890.0;;;11.7;77.1
67345;BME280;54230;52.402;6.276;2023-03-22T00:55:00;100890.0;;;11.7;77.2
67345;BME280;54230;52.402;6.276;2023-03-22T01:00:00;100890.0;;;11.8;76.7
67345;BME280;54230;52.402;6.276;2023-03-22T01:05:00;100880.0;;;11.8;76.7
67345;BME280;54230;52.402;6.276;2023-03-22T01:10:00;100880.0;;;11.8;76.7
67345;BME280;54230;52.402;6.276;2023-03-22T01:15:00;100870.0;;;11.8;76.7
67345;BME280;54230;52.402;6.276;2023-03-22T01:20:00;100870.0;;;11.7;77.1
67345;BME280;54230;52.402;6.276;2023-03-22T01:25:00;100860.0;;;11.7;76.9
67345;BME280;54230;52.402;6.276;2023-03-22T01:30:00;100850.0;;;11.7;77.0
67345;BME280;54230;52.402;6.276;2023-03-22T01:35:00;100850.0;;;11.7;77.0
67345;BME280;54230;52.402;6.276;2023-03-22T01:40:00;100840.0;;;11.8;77.0
67345;BME280;54230;52.402;6.276;2023-03-22T01:50:00;100830.0;;;11.8;76.5
67345;BME280;54230;52.402;6.276;2023-03-22T01:55:00;100820.0;;;11.8;76.0
67345;BME280;54230;52.402;6.276;2023-03-22T02:00:00;100810.0;;;11.7;76.2
67345;BME280;54230;52.402;6.276;2023-03-22T02:05:00;100790.0;;;11.7;76.4
67345;BME280;54230;52.402;6.276;2023-03-22T02:10:00;100790.0;;;11.7;76.1
67345;BME280;54230;52.402;6.276;2023-03-22T02:15:07;100780.0;;;11.7;76.0
67345;BME280;54230;52.402;6.276;2023-03-22T02:25:12;100770.0;;;11.8;75.8
67345;BME280;54230;52.402;6.276;2023-03-22T02:30:16;100770.0;;;11.8;75.7
67345;BME280;54230;52.402;6.276;2023-03-22T02:35:15;100760.0;;;11.8;75.7
67345;BME280;54230;52.402;6.276;2023-03-22T02:40:02;100750.0;;;11.9;75.4
67345;BME280;54230;52.402;6.276;2023-03-22T02:45:04;100740.0;;;11.9;75.2
67345;BME280;54230;52.402;6.276;2023-03-22T02:50:06;100740.0;;;11.9;74.9
67345;BME280;54230;52.402;6.276;2023-03-22T02:55:05;100730.0;;;11.8;75.7
67345;BME280;54230;52.402;6.276;2023-03-22T03:00:02;100730.0;;;12.1;75.8
67345;BME280;54230;52.402;6.276;2023-03-22T03:05:00;100720.0;;;12.2;75.7
67345;BME280;54230;52.402;6.276;2023-03-22T03:10:00;100710.0;;;12.2;75.1
67345;BME280;54230;52.402;6.276;2023-03-22T03:15:00;100720.0;;;12.1;75.6
67345;BME280;54230;52.402;6.276;2023-03-22T03:20:10;100710.0;;;12.2;76.0
67345;BME280;54230;52.402;6.276;2023-03-22T03:25:05;100700.0;;;12.2;76.3
67345;BME280;54230;52.402;6.276;2023-03-22T03:30:03;100690.0;;;12.2;76.1
67345;BME280;54230;52.402;6.276;2023-03-22T03:35:04;100690.0;;;12.1;76.4
67345;BME280;54230;52.402;6.276;2023-03-22T03:40:03;100680.0;;;12.2;77.0
67345;BME280;54230;52.402;6.276;2023-03-22T03:45:00;100680.0;;;12.4;77.1
67345;BME280;54230;52.402;6.276;2023-03-22T03:50:00;100690.0;;;12.4;77.0
67345;BME280;54230;52.402;6.276;2023-03-22T03:55:00;100680.0;;;12.2;77.2
67345;BME280;54230;52.402;6.276;2023-03-22T04:00:00;100680.0;;;12.2;77.9
67345;BME280;54230;52.402;6.276;2023-03-22T04:05:00;100680.0;;;12.2;77.9
67345;BME280;54230;52.402;6.276;2023-03-22T04:10:00;100680.0;;;12.2;79.0
67345;BME280;54230;52.402;6.276;2023-03-22T04:15:00;100680.0;;;12.1;79.4
67345;BME280;54230;52.402;6.276;2023-03-22T04:20:00;100680.0;;;12.3;79.5
67345;BME280;54230;52.402;6.276;2023-03-22T04:25:00;100680.0;;;12.1;79.7
67345;BME280;54230;52.402;6.276;2023-03-22T04:30:00;100680.0;;;12.0;80.3
67345;BME280;54230;52.402;6.276;2023-03-22T04:35:00;100670.0;;;12.1;80.8
67345;BME280;54230;52.402;6.276;2023-03-22T04:40:00;100670.0;;;12.3;80.5
67345;BME280;54230;52.402;6.276;2023-03-22T04:45:00;100660.0;;;12.2;79.9
67345;BME280;54230;52.402;6.276;2023-03-22T04:50:00;100660.0;;;12.1;80.4
67345;BME280;54230;52.402;6.276;2023-03-22T04:55:00;100660.0;;;11.9;80.8
67345;BME280;54230;52.402;6.276;2023-03-22T05:00:00;100660.0;;;11.8;81.2
67345;BME280;54230;52.402;6.276;2023-03-22T05:05:00;100650.0;;;11.8;81.7
67345;BME280;54230;52.402;6.276;2023-03-22T05:10:00;100650.0;;;11.9;81.5
67345;BME280;54230;52.402;6.276;2023-03-22T05:15:00;100640.0;;;11.9;81.3
67345;BME280;54230;52.402;6.276;2023-03-22T05:20:00;100640.0;;;11.9;81.4
67345;BME280;54230;52.402;6.276;2023-03-22T05:25:00;100620.0;;;11.8;81.3
67345;BME280;54230;52.402;6.276;2023-03-22T05:30:00;100620.0;;;11.9;81.3
67345;BME280;54230;52.402;6.276;2023-03-22T05:35:00;100610.0;;;11.8;81.4
67345;BME280;54230;52.402;6.276;2023-03-22T05:40:00;100620.0;;;12.0;81.5
67345;BME280;54230;52.402;6.276;2023-03-22T05:45:00;100620.0;;;12.0;80.8
67345;BME280;54230;52.402;6.276;2023-03-22T05:50:00;100610.0;;;12.0;81.0
67345;BME280;54230;52.402;6.276;2023-03-22T05:55:00;100620.0;;;12.0;80.7
67345;BME280;54230;52.402;6.276;2023-03-22T06:00:00;100620.0;;;12.1;80.7
67345;BME280;54230;52.402;6.276;2023-03-22T06:05:00;100620.0;;;12.0;80.3
67345;BME280;54230;52.402;6.276;2023-03-22T06:10:00;100620.0;;;12.2;80.2
67345;BME280;54230;52.402;6.276;2023-03-22T06:15:00;100620.0;;;12.3;79.4
67345;BME280;54230;52.402;6.276;2023-03-22T06:20:00;100610.0;;;12.1;79.4
67345;BME280;54230;52.402;6.276;2023-03-22T06:25:00;100620.0;;;12.1;79.4
67345;BME280;54230;52.402;6.276;2023-03-22T06:30:00;100610.0;;;12.1;79.7
67345;BME280;54230;52.402;6.276;2023-03-22T06:35:00;100610.0;;;12.1;79.4
67345;BME280;54230;52.402;6.276;2023-03-22T06:40:00;100600.0;;;12.2;79.3
67345;BME280;54230;52.402;6.276;2023-03-22T06:45:00;100600.0;;;12.4;78.7
67345;BME280;54230;52.402;6.276;2023-03-22T06:50:00;100610.0;;;12.5;78.1
67345;BME280;54230;52.402;6.276;2023-03-22T06:55:00;100610.0;;;12.8;77.6
67345;BME280;54230;52.402;6.276;2023-03-22T07:00:00;100600.0;;;12.9;76.3
67345;BME280;54230;52.402;6.276;2023-03-22T07:05:00;100590.0;;;12.9;76.2
67345;BME280;54230;52.402;6.276;2023-03-22T07:10:00;100590.0;;;12.7;75.7
67345;BME280;54230;52.402;6.276;2023-03-22T07:15:00;100590.0;;;12.7;76.3
67345;BME280;54230;52.402;6.276;2023-03-22T07:20:00;100590.0;;;12.8;75.7
67345;BME280;54230;52.402;6.276;2023-03-22T07:25:00;100600.0;;;13.2;75.0
67345;BME280;54230;52.402;6.276;2023-03-22T07:30:00;100590.0;;;13.3;73.5
67345;BME280;54230;52.402;6.276;2023-03-22T07:35:00;100600.0;;;13.3;73.0
67345;BME280;54230;52.402;6.276;2023-03-22T07:40:00;100590.0;;;13.3;72.3
67345;BME280;54230;52.402;6.276;2023-03-22T07:45:00;100590.0;;;13.2;72.5
67345;BME280;54230;52.402;6.276;2023-03-22T07:50:00;100590.0;;;13.2;72.1
67345;BME280;54230;52.402;6.276;2023-03-22T07:55:00;100590.0;;;13.2;71.5
67345;BME280;54230;52.402;6.276;2023-03-22T08:00:00;100600.0;;;13.3;71.3
67345;BME280;54230;52.402;6.276;2023-03-22T08:05:00;100590.0;;;13.3;70.7
67345;BME280;54230;52.402;6.276;2023-03-22T08:10:00;100600.0;;;13.4;70.4
67345;BME280;54230;52.402;6.276;2023-03-22T08:15:00;100590.0;;;13.4;69.8
67345;BME280;54230;52.402;6.276;2023-03-22T08:20:00;100600.0;;;13.5;69.5
67345;BME280;54230;52.402;6.276;2023-03-22T08:25:00;100580.0;;;13.5;69.3
67345;BME280;54230;52.402;6.276;2023-03-22T08:30:00;100580.0;;;13.9;68.5
67345;BME280;54230;52.402;6.276;2023-03-22T08:35:00;100590.0;;;14.0;67.7
67345;BME280;54230;52.402;6.276;2023-03-22T08:40:00;100590.0;;;14.2;66.9
67345;BME280;54230;52.402;6.276;2023-03-22T08:45:00;100590.0;;;14.4;66.2
67345;BME280;54230;52.402;6.276;2023-03-22T08:50:00;100580.0;;;14.4;66.1
67345;BME280;54230;52.402;6.276;2023-03-22T08:55:00;100580.0;;;14.4;65.6
67345;BME280;54230;52.402;6.276;2023-03-22T09:00:00;100580.0;;;14.6;65.4
67345;BME280;54230;52.402;6.276;2023-03-22T09:05:00;100570.0;;;14.6;64.9
67345;BME280;54230;52.402;6.276;2023-03-22T09:10:00;100580.0;;;14.6;64.7
67345;BME280;54230;52.402;6.276;2023-03-22T09:15:00;100570.0;;;14.7;64.3
67345;BME280;54230;52.402;6.276;2023-03-22T09:20:00;100570.0;;;14.9;64.0
67345;BME280;54230;52.402;6.276;2023-03-22T09:25:00;100570.0;;;14.9;64.0
67345;BME280;54230;52.402;6.276;2023-03-22T09:30:00;100560.0;;;14.9;63.5
67345;BME280;54230;52.402;6.276;2023-03-22T09:35:00;100550.0;;;14.8;63.4
67345;BME280;54230;52.402;6.276;2023-03-22T09:40:00;100550.0;;;14.8;63.1
67345;BME280;54230;52.402;6.276;2023-03-22T09:45:02;100560.0;;;14.7;63.6
67345;BME280;54230;52.402;6.276;2023-03-22T09:50:05;100560.0;;;14.6;63.6
67345;BME280;54230;52.402;6.276;2023-03-22T09:55:00;100570.0;;;14.5;63.4
67345;BME280;54230;52.402;6.276;2023-03-22T10:00:07;100570.0;;;14.4;63.4
67345;BME280;54230;52.402;6.276;2023-03-22T10:05:11;100570.0;;;14.3;63.2
67345;BME280;54230;52.402;6.276;2023-03-22T10:10:08;100560.0;;;14.2;63.3
67345;BME280;54230;52.402;6.276;2023-03-22T10:15:04;100560.0;;;14.2;63.1
67345;BME280;54230;52.402;6.276;2023-03-22T10:20:03;100570.0;;;14.2;63.3
67345;BME280;54230;52.402;6.276;2023-03-22T10:25:00;100570.0;;;14.1;63.1
67345;BME280;54230;52.402;6.276;2023-03-22T10:30:03;100560.0;;;14.0;63.4
67345;BME280;54230;52.402;6.276;2023-03-22T10:35:00;100560.0;;;14.0;64.8
67345;BME280;54230;52.402;6.276;2023-03-22T10:40:03;100570.0;;;13.8;65.6
67345;BME280;54230;52.402;6.276;2023-03-22T10:45:02;100570.0;;;13.9;66.3
67345;BME280;54230;52.402;6.276;2023-03-22T10:50:02;100570.0;;;13.8;67.2
67345;BME280;54230;52.402;6.276;2023-03-22T10:55:00;100580.0;;;13.8;68.5
67345;BME280;54230;52.402;6.276;2023-03-22T11:00:03;100580.0;;;13.6;69.2
67345;BME280;54230;52.402;6.276;2023-03-22T11:05:02;100590.0;;;13.6;70.4
67345;BME280;54230;52.402;6.276;2023-03-22T11:10:11;100580.0;;;13.7;71.5
67345;BME280;54230;52.402;6.276;2023-03-22T11:15:00;100580.0;;;13.8;73.1
67345;BME280;54230;52.402;6.276;2023-03-22T11:20:02;100580.0;;;13.6;74.2
67345;BME280;54230;52.402;6.276;2023-03-22T11:25:00;100590.0;;;13.6;75.1
67345;BME280;54230;52.402;6.276;2023-03-22T11:30:16;100590.0;;;13.6;75.0
67345;BME280;54230;52.402;6.276;2023-03-22T11:35:04;100580.0;;;13.5;75.7
67345;BME280;54230;52.402;6.276;2023-03-22T11:40:00;100580.0;;;13.6;76.0
67345;BME280;54230;52.402;6.276;2023-03-22T11:45:00;100560.0;;;13.6;76.2
67345;BME280;54230;52.402;6.276;2023-03-22T11:50:11;100550.0;;;13.6;76.5
67345;BME280;54230;52.402;6.276;2023-03-22T11:55:00;100580.0;;;13.6;75.9
67345;BME280;54230;52.402;6.276;2023-03-22T12:00:04;100550.0;;;13.4;76.0
67345;BME280;54230;52.402;6.276;2023-03-22T12:05:05;100550.0;;;13.5;76.0
67345;BME280;54230;52.402;6.276;2023-03-22T12:10:02;100570.0;;;13.7;76.2
67345;BME280;54230;52.402;6.276;2023-03-22T12:15:03;100560.0;;;13.8;75.4
67345;BME280;54230;52.402;6.276;2023-03-22T12:20:04;100580.0;;;13.6;75.2
67345;BME280;54230;52.402;6.276;2023-03-22T12:25:00;100570.0;;;13.6;75.1
67345;BME280;54230;52.402;6.276;2023-03-22T12:30:04;100580.0;;;13.4;75.1
67345;BME280;54230;52.402;6.276;2023-03-22T12:35:02;100590.0;;;13.4;74.6
67345;BME280;54230;52.402;6.276;2023-03-22T12:40:02;100580.0;;;13.5;74.4
67345;BME280;54230;52.402;6.276;2023-03-22T12:45:02;100570.0;;;13.6;74.0
67345;BME280;54230;52.402;6.276;2023-03-22T12:50:03;100570.0;;;13.6;73.4
67345;BME280;54230;52.402;6.276;2023-03-22T12:55:00;100560.0;;;13.6;73.0
67345;BME280;54230;52.402;6.276;2023-03-22T13:00:05;100570.0;;;13.6;72.8
67345;BME280;54230;52.402;6.276;2023-03-22T13:05:01;100570.0;;;13.6;72.5
67345;BME280;54230;52.402;6.276;2023-03-22T13:25:10;100580.0;;;13.6;72.7
67345;BME280;54230;52.402;6.276;2023-03-22T13:30:00;100570.0;;;13.6;73.1
67345;BME280;54230;52.402;6.276;2023-03-22T13:35:00;100570.0;;;13.6;72.8
67345;BME280;54230;52.402;6.276;2023-03-22T13:40:01;100570.0;;;13.7;73.0
67345;BME280;54230;52.402;6.276;2023-03-22T13:45:00;100570.0;;;13.7;73.5
67345;BME280;54230;52.402;6.276;2023-03-22T13:50:02;100580.0;;;13.7;73.6
67345;BME280;54230;52.402;6.276;2023-03-22T13:55:00;100590.0;;;13.8;73.7
67345;BME280;54230;52.402;6.276;2023-03-22T14:00:03;100580.0;;;13.7;74.6
67345;BME280;54230;52.402;6.276;2023-03-22T14:05:06;100580.0;;;13.6;75.3
67345;BME280;54230;52.402;6.276;2023-03-22T14:10:02;100580.0;;;13.5;76.4
67345;BME280;54230;52.402;6.276;2023-03-22T14:15:02;100580.0;;;13.4;77.0
67345;BME280;54230;52.402;6.276;2023-03-22T14:20:01;100570.0;;;13.5;77.0
67345;BME280;54230;52.402;6.276;2023-03-22T14:25:01;100570.0;;;13.4;78.8
67345;BME280;54230;52.402;6.276;2023-03-22T14:30:00;100570.0;;;13.4;79.8
67345;BME280;54230;52.402;6.276;2023-03-22T14:35:04;100570.0;;;13.4;80.1
67345;BME280;54230;52.402;6.276;2023-03-22T14:40:12;100570.0;;;13.4;80.7
67345;BME280;54230;52.402;6.276;2023-03-22T14:45:05;100560.0;;;13.5;81.0
67345;BME280;54230;52.402;6.276;2023-03-22T14:50:05;100560.0;;;13.6;80.7
67345;BME280;54230;52.402;6.276;2023-03-22T14:55:03;100550.0;;;13.6;81.1
67345;BME280;54230;52.402;6.276;2023-03-22T15:00:02;100540.0;;;13.6;81.2
67345;BME280;54230;52.402;6.276;2023-03-22T15:05:03;100530.0;;;13.7;81.1
67345;BME280;54230;52.402;6.276;2023-03-22T15:10:11;100520.0;;;13.8;80.8
67345;BME280;54230;52.402;6.276;2023-03-22T15:15:00;100520.0;;;13.8;80.3
67345;BME280;54230;52.402;6.276;2023-03-22T15:20:00;100510.0;;;13.9;80.0
67345;BME280;54230;52.402;6.276;2023-03-22T15:25:01;100510.0;;;14.0;79.3
67345;BME280;54230;52.402;6.276;2023-03-22T15:30:00;100520.0;;;13.9;79.1
67345;BME280;54230;52.402;6.276;2023-03-22T15:35:04;100520.0;;;13.9;79.0
67345;BME280;54230;52.402;6.276;2023-03-22T15:40:00;100510.0;;;13.9;78.7
67345;BME280;54230;52.402;6.276;2023-03-22T15:45:04;100510.0;;;14.0;78.4
67345;BME280;54230;52.402;6.276;2023-03-22T15:50:06;100510.0;;;14.0;78.1
67345;BME280;54230;52.402;6.276;2023-03-22T15:55:03;100510.0;;;13.9;78.3
67345;BME280;54230;52.402;6.276;2023-03-22T16:00:03;100510.0;;;13.9;78.9
67345;BME280;54230;52.402;6.276;2023-03-22T16:05:01;100500.0;;;13.9;79.1
67345;BME280;54230;52.402;6.276;2023-03-22T16:10:00;100500.0;;;13.9;79.6
67345;BME280;54230;52.402;6.276;2023-03-22T16:15:00;100510.0;;;13.7;81.0
67345;BME280;54230;52.402;6.276;2023-03-22T16:20:00;100500.0;;;13.5;82.5
67345;BME280;54230;52.402;6.276;2023-03-22T16:25:00;100510.0;;;13.5;82.7
67345;BME280;54230;52.402;6.276;2023-03-22T16:30:00;100520.0;;;13.6;82.5
67345;BME280;54230;52.402;6.276;2023-03-22T16:35:00;100510.0;;;13.4;82.7
67345;BME280;54230;52.402;6.276;2023-03-22T16:40:00;100500.0;;;13.4;83.3
67345;BME280;54230;52.402;6.276;2023-03-22T16:45:00;100490.0;;;13.4;83.7
67345;BME280;54230;52.402;6.276;2023-03-22T16:50:00;100490.0;;;13.4;83.9
67345;BME280;54230;52.402;6.276;2023-03-22T16:55:00;100490.0;;;13.2;84.9
67345;BME280;54230;52.402;6.276;2023-03-22T17:00:00;100500.0;;;13.4;86.2
67345;BME280;54230;52.402;6.276;2023-03-22T17:05:00;100490.0;;;13.6;86.3
67345;BME280;54230;52.402;6.276;2023-03-22T17:10:01;100480.0;;;13.9;85.8
67345;BME280;54230;52.402;6.276;2023-03-22T17:15:01;100470.0;;;14.1;86.3
67345;BME280;54230;52.402;6.276;2023-03-22T17:20:00;100470.0;;;14.2;86.2
67345;BME280;54230;52.402;6.276;2023-03-22T17:25:00;100460.0;;;13.9;87.1
67345;BME280;54230;52.402;6.276;2023-03-22T17:30:00;100460.0;;;13.9;86.8
67345;BME280;54230;52.402;6.276;2023-03-22T17:35:00;100440.0;;;14.2;85.0
67345;BME280;54230;52.402;6.276;2023-03-22T17:40:00;100450.0;;;14.3;83.9
67345;BME280;54230;52.402;6.276;2023-03-22T17:45:00;100450.0;;;14.2;83.1
67345;BME280;54230;52.402;6.276;2023-03-22T17:50:00;100470.0;;;14.0;83.2
67345;BME280;54230;52.402;6.276;2023-03-22T17:55:00;100480.0;;;13.9;83.5
67345;BME280;54230;52.402;6.276;2023-03-22T18:00:00;100480.0;;;14.0;83.4
67345;BME280;54230;52.402;6.276;2023-03-22T18:05:00;100470.0;;;13.9;83.7
67345;BME280;54230;52.402;6.276;2023-03-22T18:10:00;100470.0;;;13.6;83.8
67345;BME280;54230;52.402;6.276;2023-03-22T18:15:00;100480.0;;;13.8;84.0
67345;BME280;54230;52.402;6.276;2023-03-22T18:20:00;100480.0;;;13.7;84.0
67345;BME280;54230;52.402;6.276;2023-03-22T18:25:00;100490.0;;;13.6;85.6
67345;BME280;54230;52.402;6.276;2023-03-22T18:30:00;100480.0;;;13.3;87.3
67345;BME280;54230;52.402;6.276;2023-03-22T18:35:00;100470.0;;;13.2;88.8
67345;BME280;54230;52.402;6.276;2023-03-22T18:40:00;100470.0;;;13.1;89.6
67345;BME280;54230;52.402;6.276;2023-03-22T18:45:00;100460.0;;;13.4;90.2
67345;BME280;54230;52.402;6.276;2023-03-22T18:50:00;100440.0;;;13.6;89.0
67345;BME280;54230;52.402;6.276;2023-03-22T18:55:00;100430.0;;;13.7;88.2
67345;BME280;54230;52.402;6.276;2023-03-22T19:00:00;100440.0;;;13.7;87.2
67345;BME280;54230;52.402;6.276;2023-03-22T19:05:00;100440.0;;;13.7;87.6
67345;BME280;54230;52.402;6.276;2023-03-22T19:10:00;100430.0;;;13.7;87.1
67345;BME280;54230;52.402;6.276;2023-03-22T19:15:00;100410.0;;;13.5;87.4
67345;BME280;54230;52.402;6.276;2023-03-22T19:20:00;100410.0;;;13.7;87.0
67345;BME280;54230;52.402;6.276;2023-03-22T19:25:00;100400.0;;;13.9;86.6
67345;BME280;54230;52.402;6.276;2023-03-22T19:30:00;100410.0;;;14.0;85.8
67345;BME280;54230;52.402;6.276;2023-03-22T19:35:00;100410.0;;;14.1;85.3
67345;BME280;54230;52.402;6.276;2023-03-22T19:40:00;100410.0;;;13.6;85.4
67345;BME280;54230;52.402;6.276;2023-03-22T19:45:00;100400.0;;;13.3;86.6
67345;BME280;54230;52.402;6.276;2023-03-22T19:50:00;100400.0;;;13.2;87.8
67345;BME280;54230;52.402;6.276;2023-03-22T19:55:00;100390.0;;;13.1;88.6
67345;BME280;54230;52.402;6.276;2023-03-22T20:00:00;100390.0;;;13.1;89.0
67345;BME280;54230;52.402;6.276;2023-03-22T20:05:00;100390.0;;;13.1;88.9
67345;BME280;54230;52.402;6.276;2023-03-22T20:10:00;100380.0;;;13.0;89.3
67345;BME280;54230;52.402;6.276;2023-03-22T20:15:00;100390.0;;;13.0;90.0
67345;BME280;54230;52.402;6.276;2023-03-22T20:20:00;100390.0;;;13.0;90.3
67345;BME280;54230;52.402;6.276;2023-03-22T20:25:00;100400.0;;;12.9;90.6
67345;BME280;54230;52.402;6.276;2023-03-22T20:30:00;100390.0;;;12.9;90.8
67345;BME280;54230;52.402;6.276;2023-03-22T20:35:00;100390.0;;;12.9;90.9
67345;BME280;54230;52.402;6.276;2023-03-22T20:40:00;100380.0;;;12.9;91.2
67345;BME280;54230;52.402;6.276;2023-03-22T20:45:00;100380.0;;;12.9;91.5
67345;BME280;54230;52.402;6.276;2023-03-22T20:50:00;100380.0;;;12.9;91.9
67345;BME280;54230;52.402;6.276;2023-03-22T20:55:00;100380.0;;;12.9;92.4
67345;BME280;54230;52.402;6.276;2023-03-22T21:00:00;100350.0;;;12.9;92.7
67345;BME280;54230;52.402;6.276;2023-03-22T21:05:00;100330.0;;;12.8;92.8
67345;BME280;54230;52.402;6.276;2023-03-22T21:10:00;100330.0;;;12.9;92.9
67345;BME280;54230;52.402;6.276;2023-03-22T21:15:00;100330.0;;;12.8;93.1
67345;BME280;54230;52.402;6.276;2023-03-22T21:20:00;100330.0;;;12.8;93.0
67345;BME280;54230;52.402;6.276;2023-03-22T21:25:00;100300.0;;;12.9;93.0
67345;BME280;54230;52.402;6.276;2023-03-22T21:30:00;100250.0;;;13.0;92.8
67345;BME280;54230;52.402;6.276;2023-03-22T21:35:00;100300.0;;;13.0;92.3
67345;BME280;54230;52.402;6.276;2023-03-22T21:40:00;100300.0;;;13.0;92.4
67345;BME280;54230;52.402;6.276;2023-03-22T21:45:00;100310.0;;;13.0;92.3
67345;BME280;54230;52.402;6.276;2023-03-22T21:50:00;100310.0;;;13.1;92.1
67345;BME280;54230;52.402;6.276;2023-03-22T21:55:00;100310.0;;;13.1;91.8
67345;BME280;54230;52.402;6.276;2023-03-22T22:00:00;100290.0;;;13.2;91.3
67345;BME280;54230;52.402;6.276;2023-03-22T22:05:00;100310.0;;;13.2;91.0
67345;BME280;54230;52.402;6.276;2023-03-22T22:10:00;100300.0;;;13.2;90.8
67345;BME280;54230;52.402;6.276;2023-03-22T22:15:00;100290.0;;;13.2;90.8
67345;BME280;54230;52.402;6.276;2023-03-22T22:20:00;100280.0;;;13.3;90.4
67345;BME280;54230;52.402;6.276;2023-03-22T22:25:00;100280.0;;;13.3;89.9
67345;BME280;54230;52.402;6.276;2023-03-22T22:30:00;100270.0;;;13.3;89.8
67345;BME280;54230;52.402;6.276;2023-03-22T22:35:00;100270.0;;;13.3;89.5
67345;BME280;54230;52.402;6.276;2023-03-22T22:40:00;100250.0;;;13.3;88.9
67345;BME280;54230;52.402;6.276;2023-03-22T22:45:00;100240.0;;;13.3;88.7
67345;BME280;54230;52.402;6.276;2023-03-22T22:50:00;100240.0;;;13.2;88.8
67345;BME280;54230;52.402;6.276;2023-03-22T22:55:02;100250.0;;;13.4;88.5
67345;BME280;54230;52.402;6.276;2023-03-22T23:00:00;100250.0;;;13.3;88.0
67345;BME280;54230;52.402;6.276;2023-03-22T23:05:00;100240.0;;;13.4;87.8
67345;BME280;54230;52.402;6.276;2023-03-22T23:10:00;100250.0;;;13.4;87.7
67345;BME280;54230;52.402;6.276;2023-03-22T23:15:00;100230.0;;;13.4;87.2
67345;BME280;54230;52.402;6.276;2023-03-22T23:20:00;100240.0;;;13.5;86.5
67345;BME280;54230;52.402;6.276;2023-03-22T23:25:00;100240.0;;;13.5;86.3
67345;BME280;54230;52.402;6.276;2023-03-22T23:30:02;100220.0;;;13.5;86.2
67345;BME280;54230;52.402;6.276;2023-03-22T23:35:00;100240.0;;;13.5;86.4
67345;BME280;54230;52.402;6.276;2023-03-22T23:40:03;100220.0;;;13.5;86.3
67345;BME280;54230;52.402;6.276;2023-03-22T23:45:00;100220.0;;;13.4;86.2
67345;BME280;54230;52.402;6.276;2023-03-22T23:50:00;100220.0;;;13.5;86.4
67345;BME280;54230;52.402;6.276;2023-03-22T23:55:00;100220.0;;;13.4;86.5
